Roanoke — WDD9656 — position and weather

sailwx.info

Track history (hours):
 
Tides and Currents Weather Stations Pressure Air Temp Water Temp Dewpoint Dewpoint Depression Visibility Wind Speed Wind Dir Waves Ship Positions

Roanoke

Owner: Vane Line Bunkering, Baltimore, MD. More information available from US FCC via Universal Licensing System and Coast Guard Vessel Documentation Center.

Last reported at 2016-Jun-30 04:33 UTC. Time now 2016-Jun-30 05:07 UTC.
Position N 39°58' W 075°06'.

Length 32 m; draft 13 m.

Type: Towing. MMSI: 367314510.

Date/timePositionNaut miles runAvg speedWind from/ knotsBaromVisibWave heightAir tempDewpointWater temp
2016-Jun-30 04:33N 39°58' W 075°06'5 4.7
2016-Jun-30 03:31N 39°54' W 075°08'0 0.0
2016-Jun-30 02:33N 39°54' W 075°08'0 0.0
2016-Jun-30 01:32N 39°54' W 075°08'2 2.4
2016-Jun-30 00:34N 39°53' W 075°11'2 2.1
2016-Jun-29 23:31N 39°55' W 075°12'0 0.1
2016-Jun-29 22:29N 39°55' W 075°12'0 0.0
2016-Jun-29 21:32N 39°55' W 075°12'0 0.0
2016-Jun-29 20:33N 39°55' W 075°12'0 0.0
2016-Jun-29 19:33N 39°55' W 075°12'0 0.0
2016-Jun-29 18:32N 39°55' W 075°12'0 0.0
2016-Jun-29 17:33N 39°55' W 075°12'0 0.0
2016-Jun-29 16:33N 39°55' W 075°12'0 0.0
2016-Jun-29 15:28N 39°55' W 075°12'0 0.0
2016-Jun-29 14:32N 39°55' W 075°12'0 0.0
2016-Jun-29 13:32N 39°55' W 075°12'0 0.0
2016-Jun-29 12:33N 39°55' W 075°12'0 0.1
2016-Jun-29 11:31N 39°55' W 075°12'1 1.0
2016-Jun-29 10:33N 39°54' W 075°13'3 3.3
2016-Jun-29 09:34N 39°53' W 075°09'3 2.5
2016-Jun-29 08:31N 39°54' W 075°12'0 0.0
2016-Jun-29 07:29N 39°54' W 075°12'0 0.0
2016-Jun-29 06:33N 39°54' W 075°12'0 0.0
2016-Jun-29 05:31N 39°54' W 075°12'0 0.0
2016-Jun-29 04:31N 39°54' W 075°12'0 0.0
2016-Jun-29 03:33N 39°54' W 075°12'0 0.0
2016-Jun-29 02:33N 39°54' W 075°12'0 0.0
2016-Jun-29 01:33N 39°54' W 075°12'0 0.0
2016-Jun-29 00:31N 39°54' W 075°12'0 0.0
2016-Jun-28 23:29N 39°54' W 075°12'0 0.0
2016-Jun-28 22:32N 39°54' W 075°12'0 0.0
2016-Jun-28 21:30N 39°54' W 075°12'0 0.0
2016-Jun-28 20:32N 39°54' W 075°12'0 0.0
2016-Jun-28 19:33N 39°54' W 075°12'0 0.0
2016-Jun-28 18:31N 39°54' W 075°12'0 0.0
2016-Jun-28 17:31N 39°54' W 075°12'0 0.0
2016-Jun-28 16:32N 39°54' W 075°12'0 0.0
2016-Jun-28 15:33N 39°54' W 075°12'0 0.0
2016-Jun-28 14:33N 39°54' W 075°12'0 0.0
2016-Jun-28 13:31N 39°54' W 075°12'0 0.0
2016-Jun-28 12:32N 39°54' W 075°12'0 0.0
2016-Jun-28 11:31N 39°54' W 075°12'0 0.0
2016-Jun-28 10:32N 39°54' W 075°12'0 0.0
2016-Jun-28 09:33N 39°54' W 075°12'0 0.0
2016-Jun-28 08:33N 39°54' W 075°12'0 0.0
2016-Jun-28 07:31N 39°54' W 075°12'0 0.0
2016-Jun-28 06:32N 39°54' W 075°12'0 0.0
2016-Jun-28 04:33N 39°54' W 075°12'0 0.0
2016-Jun-28 03:31N 39°54' W 075°12'0 0.0
2016-Jun-28 02:31N 39°54' W 075°12'0 0.0
2016-Jun-28 01:32N 39°54' W 075°12'0 0.0
2016-Jun-28 00:33N 39°54' W 075°12'3 3.0
2016-Jun-27 23:33N 39°54' W 075°08'0 0.0
2016-Jun-27 22:31N 39°54' W 075°09'0 0.0
2016-Jun-27 21:32N 39°54' W 075°09'0 0.0
2016-Jun-27 20:33N 39°54' W 075°09'0 0.0
2016-Jun-27 19:32N 39°54' W 075°09'0 0.0
2016-Jun-27 18:30N 39°54' W 075°09'0 0.0
2016-Jun-27 17:33N 39°54' W 075°09'0 0.0
2016-Jun-27 16:31N 39°54' W 075°09'0 0.0
2016-Jun-27 15:32N 39°54' W 075°09'0 0.0
2016-Jun-27 14:32N 39°54' W 075°09'0 0.0
2016-Jun-27 13:33N 39°54' W 075°09'0 0.0
2016-Jun-27 12:31N 39°54' W 075°09'0 0.0
2016-Jun-27 11:31N 39°54' W 075°09'0 0.0
2016-Jun-27 10:33N 39°54' W 075°09'0 0.0
2016-Jun-27 09:33N 39°54' W 075°09'0 0.0
2016-Jun-27 08:33N 39°54' W 075°09'0 0.0
2016-Jun-27 07:31N 39°54' W 075°09'0 0.0
2016-Jun-27 06:32N 39°54' W 075°09'0 0.0
2016-Jun-27 05:32N 39°54' W 075°09'0 0.0
2016-Jun-27 04:28N 39°54' W 075°09'0 0.0
2016-Jun-27 03:31N 39°54' W 075°09'0 0.0
2016-Jun-27 02:31N 39°54' W 075°09'0 0.0
2016-Jun-27 01:32N 39°54' W 075°09'0 0.0
2016-Jun-27 00:33N 39°54' W 075°09'0 0.0
2016-Jun-26 23:33N 39°54' W 075°09'0 0.0
2016-Jun-26 22:31N 39°54' W 075°09'0 0.0
2016-Jun-26 21:32N 39°54' W 075°09'0 0.0
2016-Jun-26 20:32N 39°54' W 075°09'0 0.0
2016-Jun-26 19:33N 39°54' W 075°09'0 0.0
2016-Jun-26 18:31N 39°54' W 075°09'0 0.0
2016-Jun-26 17:31N 39°54' W 075°09'0 0.0
2016-Jun-26 16:32N 39°54' W 075°09'0 0.0
2016-Jun-26 15:33N 39°54' W 075°09'0 0.0
2016-Jun-26 14:33N 39°54' W 075°09'0 0.0
2016-Jun-26 13:31N 39°54' W 075°09'0 0.0
2016-Jun-26 12:32N 39°54' W 075°09'0 0.0
2016-Jun-26 11:32N 39°54' W 075°09'0 0.0
2016-Jun-26 10:33N 39°54' W 075°09'0 0.0
2016-Jun-26 09:31N 39°54' W 075°09'0 0.0
2016-Jun-26 08:31N 39°54' W 075°09'0 0.0
2016-Jun-26 07:32N 39°54' W 075°09'0 0.0
2016-Jun-26 06:33N 39°54' W 075°09'0 0.0
2016-Jun-26 05:33N 39°54' W 075°09'0 0.0
2016-Jun-26 04:31N 39°54' W 075°09'0 0.0
2016-Jun-26 03:32N 39°54' W 075°09'0 0.0
2016-Jun-26 02:32N 39°54' W 075°09'0 0.0
2016-Jun-26 01:33N 39°54' W 075°09'0 0.0
2016-Jun-26 00:31N 39°54' W 075°09'0 0.0
2016-Jun-25 23:31N 39°54' W 075°09'0 0.0
2016-Jun-25 22:32N 39°54' W 075°09'0 0.0
2016-Jun-25 21:33N 39°54' W 075°09'0 0.0
2016-Jun-25 20:34N 39°54' W 075°09'0 0.0
2016-Jun-25 19:31N 39°54' W 075°09'0 0.0
2016-Jun-25 18:32N 39°54' W 075°09'0 0.0
2016-Jun-25 17:33N 39°54' W 075°09'0 0.0
2016-Jun-25 16:33N 39°54' W 075°09'0 0.1
2016-Jun-25 15:31N 39°54' W 075°08'0 0.0
2016-Jun-25 14:31N 39°54' W 075°08'0 0.0
2016-Jun-25 13:32N 39°54' W 075°08'0 0.0
2016-Jun-25 12:33N 39°54' W 075°08'0 0.0
2016-Jun-25 11:33N 39°54' W 075°08'3 2.8
2016-Jun-25 10:31N 39°54' W 075°12'0 0.0
2016-Jun-25 09:31N 39°54' W 075°12'0 0.0
2016-Jun-25 08:33N 39°54' W 075°12'0 0.0
2016-Jun-25 07:33N 39°54' W 075°12'0 0.0
2016-Jun-25 06:33N 39°54' W 075°12'0 0.0
2016-Jun-25 05:31N 39°54' W 075°12'0 0.0
2016-Jun-25 04:32N 39°54' W 075°12'0 0.0
2016-Jun-25 03:32N 39°54' W 075°12'0 0.0
2016-Jun-25 02:33N 39°54' W 075°12'3 3.2
2016-Jun-25 01:34N 39°51' W 075°15'7 6.9
2016-Jun-25 00:33N 39°49' W 075°23'7 7.3
2016-Jun-24 23:33N 39°44' W 075°30'7 6.7
2016-Jun-24 22:33N 39°38' W 075°34'3 3.1
2016-Jun-24 21:33N 39°35' W 075°36'0 0.1
2016-Jun-24 20:32N 39°35' W 075°36'0 0.0
2016-Jun-24 19:33N 39°35' W 075°36'0 0.0
2016-Jun-24 18:33N 39°35' W 075°36'0 0.0
2016-Jun-24 17:31N 39°35' W 075°36'0 0.0
2016-Jun-24 16:32N 39°35' W 075°36'0 0.0
2016-Jun-24 15:29N 39°35' W 075°36'0 0.0
2016-Jun-24 14:31N 39°35' W 075°36'0 0.0
2016-Jun-24 13:31N 39°35' W 075°36'0 0.0
2016-Jun-24 12:31N 39°35' W 075°36'1 1.4
2016-Jun-24 11:33N 39°35' W 075°34'2 1.6
2016-Jun-24 10:33N 39°33' W 075°33'0 0.0
2016-Jun-24 09:33N 39°33' W 075°33'0 0.0
2016-Jun-24 08:31N 39°33' W 075°33'6 5.9
2016-Jun-24 07:33N 39°39' W 075°33'18 5.9
2016-Jun-24 04:33N 39°51' W 075°17'7 6.8
2016-Jun-24 03:32N 39°54' W 075°08'0 0.1
2016-Jun-24 02:33N 39°54' W 075°08'0 0.0
2016-Jun-24 01:33N 39°54' W 075°08'0 0.0
2016-Jun-24 00:31N 39°54' W 075°08'0 0.0
2016-Jun-23 23:32N 39°54' W 075°08'0 0.1
2016-Jun-23 22:34N 39°54' W 075°08'2 1.7
2016-Jun-23 21:34N 39°53' W 075°10'7 7.2
2016-Jun-23 20:34N 39°59' W 075°05'0 0.2
2016-Jun-23 19:31N 39°59' W 075°05'0 0.0
2016-Jun-23 18:32N 39°59' W 075°05'0 0.0
2016-Jun-23 17:32N 39°59' W 075°05'0 0.0
2016-Jun-23 16:33N 39°59' W 075°05'0 0.0
2016-Jun-23 15:31N 39°59' W 075°05'0 0.0
2016-Jun-23 14:31N 39°59' W 075°05'1 0.6
2016-Jun-23 13:33N 39°58' W 075°06'6 6.3
2016-Jun-23 12:33N 39°53' W 075°09'2 1.9
2016-Jun-23 11:33N 39°53' W 075°12'0 0.0
2016-Jun-23 10:31N 39°53' W 075°12'0 0.0
2016-Jun-23 09:33N 39°53' W 075°12'3 2.6
2016-Jun-23 08:31N 39°54' W 075°08'0 0.2
2016-Jun-23 07:32N 39°54' W 075°08'0 0.0
2016-Jun-23 05:33N 39°54' W 075°08'0 0.0
2016-Jun-23 04:31N 39°54' W 075°08'0 0.0
2016-Jun-23 03:32N 39°54' W 075°08'4 4.2
2016-Jun-23 02:34N 39°52' W 075°13'8 7.9
2016-Jun-23 01:33N 39°49' W 075°23'8 7.7
2016-Jun-23 00:34N 39°44' W 075°30'7 7.2
2016-Jun-22 23:34N 39°38' W 075°35'6 5.6
2016-Jun-22 22:34N 39°33' W 075°39'9 9.2
2016-Jun-22 21:33N 39°32' W 075°51'9 8.6
2016-Jun-22 20:34N 39°27' W 075°60'8 8.2
2016-Jun-22 19:34N 39°22' W 076°08'16 7.8
2016-Jun-22 17:33N 39°12' W 076°24'8 8.0
2016-Jun-22 16:34N 39°15' W 076°33'1 0.3
2016-Jun-22 13:30N 39°15' W 076°34'1 1.5
2016-Jun-22 12:33N 39°13' W 076°33'1 1.1
2016-Jun-22 11:33N 39°13' W 076°35'0 0.0
2016-Jun-22 10:33N 39°13' W 076°35'0 0.0
2016-Jun-22 09:31N 39°13' W 076°35'0 0.0
2016-Jun-22 08:32N 39°13' W 076°35'0 0.0
2016-Jun-22 07:29N 39°13' W 076°35'0 0.0
2016-Jun-22 06:30N 39°13' W 076°35'0 0.0
2016-Jun-22 05:31N 39°13' W 076°35'0 0.0
2016-Jun-22 04:31N 39°13' W 076°35'0 0.0
2016-Jun-22 03:32N 39°13' W 076°35'0 0.0
2016-Jun-22 02:33N 39°13' W 076°35'0 0.0
2016-Jun-22 01:33N 39°13' W 076°35'0 0.0
2016-Jun-22 00:22N 39°13' W 076°35'0 0.0
2016-Jun-21 21:30N 39°13' W 076°35'3 2.8
2016-Jun-21 20:31N 39°15' W 076°33'0 0.0
2016-Jun-21 17:09N 39°15' W 076°33'0 0.0
2016-Jun-21 14:23N 39°15' W 076°33'0 0.0
2016-Jun-21 12:15N 39°15' W 076°33'0 0.0
2016-Jun-21 11:22N 39°15' W 076°33'0 0.0
2016-Jun-21 10:05N 39°15' W 076°33'0 0.0
2016-Jun-21 09:26N 39°15' W 076°33'0 0.0
2016-Jun-21 06:22N 39°15' W 076°33'0 0.0
2016-Jun-21 04:32N 39°15' W 076°33'0 0.0
2016-Jun-21 02:19N 39°15' W 076°33'0 0.0
2016-Jun-21 01:22N 39°15' W 076°33'0 0.0
2016-Jun-21 00:30N 39°15' W 076°33'0 0.0
2016-Jun-20 23:32N 39°15' W 076°33'0 0.0
2016-Jun-20 21:22N 39°15' W 076°33'0 0.0
2016-Jun-20 16:28N 39°15' W 076°33'0 0.0
2016-Jun-20 15:23N 39°15' W 076°33'0 0.0
2016-Jun-20 14:33N 39°15' W 076°33'0 0.0
2016-Jun-20 13:33N 39°15' W 076°33'0 0.0
2016-Jun-20 12:28N 39°15' W 076°33'0 0.0
2016-Jun-20 11:32N 39°15' W 076°33'0 0.0
2016-Jun-20 10:32N 39°15' W 076°33'0 0.0
2016-Jun-20 09:33N 39°15' W 076°33'0 0.0
2016-Jun-20 08:33N 39°15' W 076°33'0 0.0
2016-Jun-20 07:25N 39°15' W 076°33'0 0.0
2016-Jun-20 06:32N 39°15' W 076°33'  
Track history (hours):
 
Tides and Currents Weather Stations Pressure Air Temp Water Temp Dewpoint Dewpoint Depression Visibility Wind Speed Wind Dir Waves Ship Positions

Roanoke

Owner: Vane Line Bunkering, Baltimore, MD. More information available from US FCC via Universal Licensing System and Coast Guard Vessel Documentation Center.

Last reported at 2016-Jun-30 04:33 UTC. Time now 2016-Jun-30 05:07 UTC.
Position N 39°58' W 075°06'.

Length 32 m; draft 13 m.

Type: Towing. MMSI: 367314510.

Date/timePositionNaut miles runAvg speedWind from/ knotsBaromVisibWave heightAir tempDewpointWater temp
2016-Jun-30 04:33N 39°58' W 075°06'5 4.7
2016-Jun-30 03:31N 39°54' W 075°08'0 0.0
2016-Jun-30 02:33N 39°54' W 075°08'0 0.0
2016-Jun-30 01:32N 39°54' W 075°08'2 2.4
2016-Jun-30 00:34N 39°53' W 075°11'2 2.1
2016-Jun-29 23:31N 39°55' W 075°12'0 0.1
2016-Jun-29 22:29N 39°55' W 075°12'0 0.0
2016-Jun-29 21:32N 39°55' W 075°12'0 0.0
2016-Jun-29 20:33N 39°55' W 075°12'0 0.0
2016-Jun-29 19:33N 39°55' W 075°12'0 0.0
2016-Jun-29 18:32N 39°55' W 075°12'0 0.0
2016-Jun-29 17:33N 39°55' W 075°12'0 0.0
2016-Jun-29 16:33N 39°55' W 075°12'0 0.0
2016-Jun-29 15:28N 39°55' W 075°12'0 0.0
2016-Jun-29 14:32N 39°55' W 075°12'0 0.0
2016-Jun-29 13:32N 39°55' W 075°12'0 0.0
2016-Jun-29 12:33N 39°55' W 075°12'0 0.1
2016-Jun-29 11:31N 39°55' W 075°12'1 1.0
2016-Jun-29 10:33N 39°54' W 075°13'3 3.3
2016-Jun-29 09:34N 39°53' W 075°09'3 2.5
2016-Jun-29 08:31N 39°54' W 075°12'0 0.0
2016-Jun-29 07:29N 39°54' W 075°12'0 0.0
2016-Jun-29 06:33N 39°54' W 075°12'0 0.0
2016-Jun-29 05:31N 39°54' W 075°12'0 0.0
2016-Jun-29 04:31N 39°54' W 075°12'0 0.0
2016-Jun-29 03:33N 39°54' W 075°12'0 0.0
2016-Jun-29 02:33N 39°54' W 075°12'0 0.0
2016-Jun-29 01:33N 39°54' W 075°12'0 0.0
2016-Jun-29 00:31N 39°54' W 075°12'0 0.0
2016-Jun-28 23:29N 39°54' W 075°12'0 0.0
2016-Jun-28 22:32N 39°54' W 075°12'0 0.0
2016-Jun-28 21:30N 39°54' W 075°12'0 0.0
2016-Jun-28 20:32N 39°54' W 075°12'0 0.0
2016-Jun-28 19:33N 39°54' W 075°12'0 0.0
2016-Jun-28 18:31N 39°54' W 075°12'0 0.0
2016-Jun-28 17:31N 39°54' W 075°12'0 0.0
2016-Jun-28 16:32N 39°54' W 075°12'0 0.0
2016-Jun-28 15:33N 39°54' W 075°12'0 0.0
2016-Jun-28 14:33N 39°54' W 075°12'0 0.0
2016-Jun-28 13:31N 39°54' W 075°12'0 0.0
2016-Jun-28 12:32N 39°54' W 075°12'0 0.0
2016-Jun-28 11:31N 39°54' W 075°12'0 0.0
2016-Jun-28 10:32N 39°54' W 075°12'0 0.0
2016-Jun-28 09:33N 39°54' W 075°12'0 0.0
2016-Jun-28 08:33N 39°54' W 075°12'0 0.0
2016-Jun-28 07:31N 39°54' W 075°12'0 0.0
2016-Jun-28 06:32N 39°54' W 075°12'0 0.0
2016-Jun-28 04:33N 39°54' W 075°12'0 0.0
2016-Jun-28 03:31N 39°54' W 075°12'0 0.0
2016-Jun-28 02:31N 39°54' W 075°12'0 0.0
2016-Jun-28 01:32N 39°54' W 075°12'0 0.0
2016-Jun-28 00:33N 39°54' W 075°12'3 3.0
2016-Jun-27 23:33N 39°54' W 075°08'0 0.0
2016-Jun-27 22:31N 39°54' W 075°09'0 0.0
2016-Jun-27 21:32N 39°54' W 075°09'0 0.0
2016-Jun-27 20:33N 39°54' W 075°09'0 0.0
2016-Jun-27 19:32N 39°54' W 075°09'0 0.0
2016-Jun-27 18:30N 39°54' W 075°09'0 0.0
2016-Jun-27 17:33N 39°54' W 075°09'0 0.0
2016-Jun-27 16:31N 39°54' W 075°09'0 0.0
2016-Jun-27 15:32N 39°54' W 075°09'0 0.0
2016-Jun-27 14:32N 39°54' W 075°09'0 0.0
2016-Jun-27 13:33N 39°54' W 075°09'0 0.0
2016-Jun-27 12:31N 39°54' W 075°09'0 0.0
2016-Jun-27 11:31N 39°54' W 075°09'0 0.0
2016-Jun-27 10:33N 39°54' W 075°09'0 0.0
2016-Jun-27 09:33N 39°54' W 075°09'0 0.0
2016-Jun-27 08:33N 39°54' W 075°09'0 0.0
2016-Jun-27 07:31N 39°54' W 075°09'0 0.0
2016-Jun-27 06:32N 39°54' W 075°09'0 0.0
2016-Jun-27 05:32N 39°54' W 075°09'0 0.0
2016-Jun-27 04:28N 39°54' W 075°09'0 0.0
2016-Jun-27 03:31N 39°54' W 075°09'0 0.0
2016-Jun-27 02:31N 39°54' W 075°09'0 0.0
2016-Jun-27 01:32N 39°54' W 075°09'0 0.0
2016-Jun-27 00:33N 39°54' W 075°09'0 0.0
2016-Jun-26 23:33N 39°54' W 075°09'0 0.0
2016-Jun-26 22:31N 39°54' W 075°09'0 0.0
2016-Jun-26 21:32N 39°54' W 075°09'0 0.0
2016-Jun-26 20:32N 39°54' W 075°09'0 0.0
2016-Jun-26 19:33N 39°54' W 075°09'0 0.0
2016-Jun-26 18:31N 39°54' W 075°09'0 0.0
2016-Jun-26 17:31N 39°54' W 075°09'0 0.0
2016-Jun-26 16:32N 39°54' W 075°09'0 0.0
2016-Jun-26 15:33N 39°54' W 075°09'0 0.0
2016-Jun-26 14:33N 39°54' W 075°09'0 0.0
2016-Jun-26 13:31N 39°54' W 075°09'0 0.0
2016-Jun-26 12:32N 39°54' W 075°09'0 0.0
2016-Jun-26 11:32N 39°54' W 075°09'0 0.0
2016-Jun-26 10:33N 39°54' W 075°09'0 0.0
2016-Jun-26 09:31N 39°54' W 075°09'0 0.0
2016-Jun-26 08:31N 39°54' W 075°09'0 0.0
2016-Jun-26 07:32N 39°54' W 075°09'0 0.0
2016-Jun-26 06:33N 39°54' W 075°09'0 0.0
2016-Jun-26 05:33N 39°54' W 075°09'0 0.0
2016-Jun-26 04:31N 39°54' W 075°09'0 0.0
2016-Jun-26 03:32N 39°54' W 075°09'0 0.0
2016-Jun-26 02:32N 39°54' W 075°09'0 0.0
2016-Jun-26 01:33N 39°54' W 075°09'0 0.0
2016-Jun-26 00:31N 39°54' W 075°09'0 0.0
2016-Jun-25 23:31N 39°54' W 075°09'0 0.0
2016-Jun-25 22:32N 39°54' W 075°09'0 0.0
2016-Jun-25 21:33N 39°54' W 075°09'0 0.0
2016-Jun-25 20:34N 39°54' W 075°09'0 0.0
2016-Jun-25 19:31N 39°54' W 075°09'0 0.0
2016-Jun-25 18:32N 39°54' W 075°09'0 0.0
2016-Jun-25 17:33N 39°54' W 075°09'0 0.0
2016-Jun-25 16:33N 39°54' W 075°09'0 0.1
2016-Jun-25 15:31N 39°54' W 075°08'0 0.0
2016-Jun-25 14:31N 39°54' W 075°08'0 0.0
2016-Jun-25 13:32N 39°54' W 075°08'0 0.0
2016-Jun-25 12:33N 39°54' W 075°08'0 0.0
2016-Jun-25 11:33N 39°54' W 075°08'3 2.8
2016-Jun-25 10:31N 39°54' W 075°12'0 0.0
2016-Jun-25 09:31N 39°54' W 075°12'0 0.0
2016-Jun-25 08:33N 39°54' W 075°12'0 0.0
2016-Jun-25 07:33N 39°54' W 075°12'0 0.0
2016-Jun-25 06:33N 39°54' W 075°12'0 0.0
2016-Jun-25 05:31N 39°54' W 075°12'0 0.0
2016-Jun-25 04:32N 39°54' W 075°12'0 0.0
2016-Jun-25 03:32N 39°54' W 075°12'0 0.0
2016-Jun-25 02:33N 39°54' W 075°12'3 3.2
2016-Jun-25 01:34N 39°51' W 075°15'7 6.9
2016-Jun-25 00:33N 39°49' W 075°23'7 7.3
2016-Jun-24 23:33N 39°44' W 075°30'7 6.7
2016-Jun-24 22:33N 39°38' W 075°34'3 3.1
2016-Jun-24 21:33N 39°35' W 075°36'0 0.1
2016-Jun-24 20:32N 39°35' W 075°36'0 0.0
2016-Jun-24 19:33N 39°35' W 075°36'0 0.0
2016-Jun-24 18:33N 39°35' W 075°36'0 0.0
2016-Jun-24 17:31N 39°35' W 075°36'0 0.0
2016-Jun-24 16:32N 39°35' W 075°36'0 0.0
2016-Jun-24 15:29N 39°35' W 075°36'0 0.0
2016-Jun-24 14:31N 39°35' W 075°36'0 0.0
2016-Jun-24 13:31N 39°35' W 075°36'0 0.0
2016-Jun-24 12:31N 39°35' W 075°36'1 1.4
2016-Jun-24 11:33N 39°35' W 075°34'2 1.6
2016-Jun-24 10:33N 39°33' W 075°33'0 0.0
2016-Jun-24 09:33N 39°33' W 075°33'0 0.0
2016-Jun-24 08:31N 39°33' W 075°33'6 5.9
2016-Jun-24 07:33N 39°39' W 075°33'18 5.9
2016-Jun-24 04:33N 39°51' W 075°17'7 6.8
2016-Jun-24 03:32N 39°54' W 075°08'0 0.1
2016-Jun-24 02:33N 39°54' W 075°08'0 0.0
2016-Jun-24 01:33N 39°54' W 075°08'0 0.0
2016-Jun-24 00:31N 39°54' W 075°08'0 0.0
2016-Jun-23 23:32N 39°54' W 075°08'0 0.1
2016-Jun-23 22:34N 39°54' W 075°08'2 1.7
2016-Jun-23 21:34N 39°53' W 075°10'7 7.2
2016-Jun-23 20:34N 39°59' W 075°05'0 0.2
2016-Jun-23 19:31N 39°59' W 075°05'0 0.0
2016-Jun-23 18:32N 39°59' W 075°05'0 0.0
2016-Jun-23 17:32N 39°59' W 075°05'0 0.0
2016-Jun-23 16:33N 39°59' W 075°05'0 0.0
2016-Jun-23 15:31N 39°59' W 075°05'0 0.0
2016-Jun-23 14:31N 39°59' W 075°05'1 0.6
2016-Jun-23 13:33N 39°58' W 075°06'6 6.3
2016-Jun-23 12:33N 39°53' W 075°09'2 1.9
2016-Jun-23 11:33N 39°53' W 075°12'0 0.0
2016-Jun-23 10:31N 39°53' W 075°12'0 0.0
2016-Jun-23 09:33N 39°53' W 075°12'3 2.6
2016-Jun-23 08:31N 39°54' W 075°08'0 0.2
2016-Jun-23 07:32N 39°54' W 075°08'0 0.0
2016-Jun-23 05:33N 39°54' W 075°08'0 0.0
2016-Jun-23 04:31N 39°54' W 075°08'0 0.0
2016-Jun-23 03:32N 39°54' W 075°08'4 4.2
2016-Jun-23 02:34N 39°52' W 075°13'8 7.9
2016-Jun-23 01:33N 39°49' W 075°23'8 7.7
2016-Jun-23 00:34N 39°44' W 075°30'7 7.2
2016-Jun-22 23:34N 39°38' W 075°35'6 5.6
2016-Jun-22 22:34N 39°33' W 075°39'9 9.2
2016-Jun-22 21:33N 39°32' W 075°51'9 8.6
2016-Jun-22 20:34N 39°27' W 075°60'8 8.2
2016-Jun-22 19:34N 39°22' W 076°08'16 7.8
2016-Jun-22 17:33N 39°12' W 076°24'8 8.0
2016-Jun-22 16:34N 39°15' W 076°33'1 0.3
2016-Jun-22 13:30N 39°15' W 076°34'1 1.5
2016-Jun-22 12:33N 39°13' W 076°33'1 1.1
2016-Jun-22 11:33N 39°13' W 076°35'0 0.0
2016-Jun-22 10:33N 39°13' W 076°35'0 0.0
2016-Jun-22 09:31N 39°13' W 076°35'0 0.0
2016-Jun-22 08:32N 39°13' W 076°35'0 0.0
2016-Jun-22 07:29N 39°13' W 076°35'0 0.0
2016-Jun-22 06:30N 39°13' W 076°35'0 0.0
2016-Jun-22 05:31N 39°13' W 076°35'0 0.0
2016-Jun-22 04:31N 39°13' W 076°35'0 0.0
2016-Jun-22 03:32N 39°13' W 076°35'0 0.0
2016-Jun-22 02:33N 39°13' W 076°35'0 0.0
2016-Jun-22 01:33N 39°13' W 076°35'0 0.0
2016-Jun-22 00:22N 39°13' W 076°35'0 0.0
2016-Jun-21 21:30N 39°13' W 076°35'3 2.8
2016-Jun-21 20:31N 39°15' W 076°33'0 0.0
2016-Jun-21 17:09N 39°15' W 076°33'0 0.0
2016-Jun-21 14:23N 39°15' W 076°33'0 0.0
2016-Jun-21 12:15N 39°15' W 076°33'0 0.0
2016-Jun-21 11:22N 39°15' W 076°33'0 0.0
2016-Jun-21 10:05N 39°15' W 076°33'0 0.0
2016-Jun-21 09:26N 39°15' W 076°33'0 0.0
2016-Jun-21 06:22N 39°15' W 076°33'0 0.0
2016-Jun-21 04:32N 39°15' W 076°33'0 0.0
2016-Jun-21 02:19N 39°15' W 076°33'0 0.0
2016-Jun-21 01:22N 39°15' W 076°33'0 0.0
2016-Jun-21 00:30N 39°15' W 076°33'0 0.0
2016-Jun-20 23:32N 39°15' W 076°33'0 0.0
2016-Jun-20 21:22N 39°15' W 076°33'0 0.0
2016-Jun-20 16:28N 39°15' W 076°33'0 0.0
2016-Jun-20 15:23N 39°15' W 076°33'0 0.0
2016-Jun-20 14:33N 39°15' W 076°33'0 0.0
2016-Jun-20 13:33N 39°15' W 076°33'0 0.0
2016-Jun-20 12:28N 39°15' W 076°33'0 0.0
2016-Jun-20 11:32N 39°15' W 076°33'0 0.0
2016-Jun-20 10:32N 39°15' W 076°33'0 0.0
2016-Jun-20 09:33N 39°15' W 076°33'0 0.0
2016-Jun-20 08:33N 39°15' W 076°33'0 0.0
2016-Jun-20 07:25N 39°15' W 076°33'0 0.0
2016-Jun-20 06:32N 39°15' W 076°33'  

Dump ship's entire track history